sensor_id;sensor_type;location;lat;lon;timestamp;P1;durP1;ratioP1;P2;durP2;ratioP2
7473;SDS011;3778;42.572;23.426;2024-03-17T00:01:12;13.63;;;6.13;;
7473;SDS011;3778;42.572;23.426;2024-03-17T00:03:38;14.82;;;6.18;;
7473;SDS011;3778;42.572;23.426;2024-03-17T00:06:03;11.25;;;5.43;;
7473;SDS011;3778;42.572;23.426;2024-03-17T00:08:29;15.98;;;6.75;;
7473;SDS011;3778;42.572;23.426;2024-03-17T00:10:55;14.30;;;6.22;;
7473;SDS011;3778;42.572;23.426;2024-03-17T00:13:22;13.20;;;6.38;;
7473;SDS011;3778;42.572;23.426;2024-03-17T00:15:48;12.00;;;6.35;;
7473;SDS011;3778;42.572;23.426;2024-03-17T00:18:14;14.05;;;6.47;;
7473;SDS011;3778;42.572;23.426;2024-03-17T00:20:40;13.60;;;6.38;;
7473;SDS011;3778;42.572;23.426;2024-03-17T00:23:06;14.82;;;5.47;;
7473;SDS011;3778;42.572;23.426;2024-03-17T00:25:33;11.57;;;5.18;;
7473;SDS011;3778;42.572;23.426;2024-03-17T00:27:59;15.27;;;6.22;;
7473;SDS011;3778;42.572;23.426;2024-03-17T00:30:25;12.05;;;5.93;;
7473;SDS011;3778;42.572;23.426;2024-03-17T00:32:51;12.82;;;5.85;;
7473;SDS011;3778;42.572;23.426;2024-03-17T00:35:16;13.70;;;6.38;;
7473;SDS011;3778;42.572;23.426;2024-03-17T00:37:48;11.48;;;5.57;;
7473;SDS011;3778;42.572;23.426;2024-03-17T00:40:15;13.10;;;6.38;;
7473;SDS011;3778;42.572;23.426;2024-03-17T00:42:41;13.45;;;5.82;;
7473;SDS011;3778;42.572;23.426;2024-03-17T00:45:08;12.50;;;5.53;;
7473;SDS011;3778;42.572;23.426;2024-03-17T00:47:35;7.18;;;4.40;;
7473;SDS011;3778;42.572;23.426;2024-03-17T00:50:01;12.18;;;6.13;;
7473;SDS011;3778;42.572;23.426;2024-03-17T00:52:26;11.95;;;5.93;;
7473;SDS011;3778;42.572;23.426;2024-03-17T00:54:52;14.02;;;6.43;;
7473;SDS011;3778;42.572;23.426;2024-03-17T00:57:19;13.65;;;5.72;;
7473;SDS011;3778;42.572;23.426;2024-03-17T00:59:44;11.55;;;4.95;;
7473;SDS011;3778;42.572;23.426;2024-03-17T01:02:12;8.98;;;4.32;;
7473;SDS011;3778;42.572;23.426;2024-03-17T01:04:41;11.32;;;5.68;;
7473;SDS011;3778;42.572;23.426;2024-03-17T01:07:08;11.00;;;5.35;;
7473;SDS011;3778;42.572;23.426;2024-03-17T01:09:34;12.20;;;5.28;;
7473;SDS011;3778;42.572;23.426;2024-03-17T01:12:00;13.73;;;5.97;;
7473;SDS011;3778;42.572;23.426;2024-03-17T01:14:25;11.82;;;5.28;;
7473;SDS011;3778;42.572;23.426;2024-03-17T01:16:52;10.20;;;5.78;;
7473;SDS011;3778;42.572;23.426;2024-03-17T01:19:18;14.27;;;6.00;;
7473;SDS011;3778;42.572;23.426;2024-03-17T01:21:43;11.35;;;6.20;;
7473;SDS011;3778;42.572;23.426;2024-03-17T01:24:08;11.32;;;5.30;;
7473;SDS011;3778;42.572;23.426;2024-03-17T01:26:34;11.30;;;4.72;;
7473;SDS011;3778;42.572;23.426;2024-03-17T01:29:00;17.05;;;5.30;;
7473;SDS011;3778;42.572;23.426;2024-03-17T01:31:26;13.05;;;5.82;;
7473;SDS011;3778;42.572;23.426;2024-03-17T01:33:52;15.00;;;6.65;;
7473;SDS011;3778;42.572;23.426;2024-03-17T01:36:17;10.95;;;5.55;;
7473;SDS011;3778;42.572;23.426;2024-03-17T01:38:43;10.82;;;6.03;;
7473;SDS011;3778;42.572;23.426;2024-03-17T01:41:08;11.90;;;5.15;;
7473;SDS011;3778;42.572;23.426;2024-03-17T01:43:34;12.23;;;6.32;;
7473;SDS011;3778;42.572;23.426;2024-03-17T01:46:00;13.35;;;6.30;;
7473;SDS011;3778;42.572;23.426;2024-03-17T01:48:27;15.20;;;6.13;;
7473;SDS011;3778;42.572;23.426;2024-03-17T01:50:53;11.73;;;4.60;;
7473;SDS011;3778;42.572;23.426;2024-03-17T01:53:21;12.93;;;6.53;;
7473;SDS011;3778;42.572;23.426;2024-03-17T01:58:20;10.52;;;5.03;;
7473;SDS011;3778;42.572;23.426;2024-03-17T02:00:47;15.38;;;5.80;;
7473;SDS011;3778;42.572;23.426;2024-03-17T02:03:13;15.15;;;6.63;;
7473;SDS011;3778;42.572;23.426;2024-03-17T02:05:38;11.45;;;6.30;;
7473;SDS011;3778;42.572;23.426;2024-03-17T02:08:04;14.20;;;6.25;;
7473;SDS011;3778;42.572;23.426;2024-03-17T02:10:32;14.20;;;6.30;;
7473;SDS011;3778;42.572;23.426;2024-03-17T02:12:58;15.23;;;5.40;;
7473;SDS011;3778;42.572;23.426;2024-03-17T02:15:24;10.93;;;6.22;;
7473;SDS011;3778;42.572;23.426;2024-03-17T02:17:50;13.45;;;6.28;;
7473;SDS011;3778;42.572;23.426;2024-03-17T02:20:15;11.95;;;5.57;;
7473;SDS011;3778;42.572;23.426;2024-03-17T02:22:41;12.60;;;6.63;;
7473;SDS011;3778;42.572;23.426;2024-03-17T02:25:06;9.98;;;5.80;;
7473;SDS011;3778;42.572;23.426;2024-03-17T02:27:34;12.23;;;6.03;;
7473;SDS011;3778;42.572;23.426;2024-03-17T02:30:00;12.57;;;5.43;;
7473;SDS011;3778;42.572;23.426;2024-03-17T02:32:25;12.50;;;6.32;;
7473;SDS011;3778;42.572;23.426;2024-03-17T02:34:52;15.07;;;6.90;;
7473;SDS011;3778;42.572;23.426;2024-03-17T02:37:19;13.57;;;6.43;;
7473;SDS011;3778;42.572;23.426;2024-03-17T02:39:44;13.90;;;6.30;;
7473;SDS011;3778;42.572;23.426;2024-03-17T02:42:10;13.05;;;6.20;;
7473;SDS011;3778;42.572;23.426;2024-03-17T02:44:37;13.25;;;6.22;;
7473;SDS011;3778;42.572;23.426;2024-03-17T02:47:04;15.60;;;6.38;;
7473;SDS011;3778;42.572;23.426;2024-03-17T02:49:31;11.32;;;7.03;;
7473;SDS011;3778;42.572;23.426;2024-03-17T02:52:02;16.17;;;6.55;;
7473;SDS011;3778;42.572;23.426;2024-03-17T02:54:29;16.95;;;5.97;;
7473;SDS011;3778;42.572;23.426;2024-03-17T02:56:55;16.65;;;6.45;;
7473;SDS011;3778;42.572;23.426;2024-03-17T02:59:20;12.35;;;6.40;;
7473;SDS011;3778;42.572;23.426;2024-03-17T03:01:46;13.13;;;6.35;;
7473;SDS011;3778;42.572;23.426;2024-03-17T03:04:12;14.52;;;6.60;;
7473;SDS011;3778;42.572;23.426;2024-03-17T03:06:37;11.82;;;5.43;;
7473;SDS011;3778;42.572;23.426;2024-03-17T03:09:03;10.60;;;5.63;;
7473;SDS011;3778;42.572;23.426;2024-03-17T03:11:34;11.85;;;6.40;;
7473;SDS011;3778;42.572;23.426;2024-03-17T03:14:00;14.82;;;7.82;;
7473;SDS011;3778;42.572;23.426;2024-03-17T03:16:27;11.85;;;6.25;;
7473;SDS011;3778;42.572;23.426;2024-03-17T03:18:53;8.15;;;4.03;;
7473;SDS011;3778;42.572;23.426;2024-03-17T03:21:19;16.92;;;4.85;;
7473;SDS011;3778;42.572;23.426;2024-03-17T03:23:46;12.50;;;5.82;;
7473;SDS011;3778;42.572;23.426;2024-03-17T03:26:12;13.63;;;4.28;;
7473;SDS011;3778;42.572;23.426;2024-03-17T03:28:38;12.90;;;6.13;;
7473;SDS011;3778;42.572;23.426;2024-03-17T03:31:04;18.10;;;7.45;;
7473;SDS011;3778;42.572;23.426;2024-03-17T03:33:29;9.00;;;5.28;;
7473;SDS011;3778;42.572;23.426;2024-03-17T03:35:55;12.55;;;5.05;;
7473;SDS011;3778;42.572;23.426;2024-03-17T03:38:21;13.65;;;7.22;;
7473;SDS011;3778;42.572;23.426;2024-03-17T03:40:50;18.52;;;7.05;;
7473;SDS011;3778;42.572;23.426;2024-03-17T03:43:17;10.95;;;5.07;;
7473;SDS011;3778;42.572;23.426;2024-03-17T03:45:43;12.18;;;6.28;;
7473;SDS011;3778;42.572;23.426;2024-03-17T03:48:08;11.15;;;5.63;;
7473;SDS011;3778;42.572;23.426;2024-03-17T03:50:34;14.95;;;6.60;;
7473;SDS011;3778;42.572;23.426;2024-03-17T03:53:00;16.45;;;5.57;;
7473;SDS011;3778;42.572;23.426;2024-03-17T03:55:25;13.52;;;5.30;;
7473;SDS011;3778;42.572;23.426;2024-03-17T03:57:51;10.20;;;5.18;;
7473;SDS011;3778;42.572;23.426;2024-03-17T04:00:19;7.10;;;4.05;;
7473;SDS011;3778;42.572;23.426;2024-03-17T04:02:49;13.35;;;5.93;;
7473;SDS011;3778;42.572;23.426;2024-03-17T04:05:16;14.27;;;6.18;;
7473;SDS011;3778;42.572;23.426;2024-03-17T04:07:43;15.27;;;6.15;;
7473;SDS011;3778;42.572;23.426;2024-03-17T04:10:11;17.00;;;7.25;;
7473;SDS011;3778;42.572;23.426;2024-03-17T04:12:37;14.98;;;6.30;;
7473;SDS011;3778;42.572;23.426;2024-03-17T04:15:03;13.70;;;6.57;;
7473;SDS011;3778;42.572;23.426;2024-03-17T04:17:31;17.88;;;7.43;;
7473;SDS011;3778;42.572;23.426;2024-03-17T04:19:57;14.07;;;6.53;;
7473;SDS011;3778;42.572;23.426;2024-03-17T04:22:23;16.60;;;7.43;;
7473;SDS011;3778;42.572;23.426;2024-03-17T04:24:49;13.25;;;6.05;;
7473;SDS011;3778;42.572;23.426;2024-03-17T04:27:25;12.43;;;4.93;;
7473;SDS011;3778;42.572;23.426;2024-03-17T04:29:53;11.73;;;5.57;;
7473;SDS011;3778;42.572;23.426;2024-03-17T04:32:20;13.52;;;5.72;;
7473;SDS011;3778;42.572;23.426;2024-03-17T04:34:46;20.45;;;7.38;;
7473;SDS011;3778;42.572;23.426;2024-03-17T04:37:14;14.13;;;6.95;;
7473;SDS011;3778;42.572;23.426;2024-03-17T04:39:41;7.40;;;4.45;;
7473;SDS011;3778;42.572;23.426;2024-03-17T04:42:10;20.60;;;8.23;;
7473;SDS011;3778;42.572;23.426;2024-03-17T04:44:36;11.02;;;6.38;;
7473;SDS011;3778;42.572;23.426;2024-03-17T04:47:02;12.55;;;6.10;;
7473;SDS011;3778;42.572;23.426;2024-03-17T04:49:32;18.92;;;9.07;;
7473;SDS011;3778;42.572;23.426;2024-03-17T04:52:00;17.33;;;6.03;;
7473;SDS011;3778;42.572;23.426;2024-03-17T04:54:25;13.50;;;7.05;;
7473;SDS011;3778;42.572;23.426;2024-03-17T04:56:51;14.73;;;7.03;;
7473;SDS011;3778;42.572;23.426;2024-03-17T04:59:16;15.73;;;6.63;;
7473;SDS011;3778;42.572;23.426;2024-03-17T05:01:42;14.93;;;7.65;;
7473;SDS011;3778;42.572;23.426;2024-03-17T05:04:07;12.02;;;6.20;;
7473;SDS011;3778;42.572;23.426;2024-03-17T05:06:33;17.88;;;7.80;;
7473;SDS011;3778;42.572;23.426;2024-03-17T05:08:58;16.92;;;6.88;;
7473;SDS011;3778;42.572;23.426;2024-03-17T05:11:24;13.88;;;7.15;;
7473;SDS011;3778;42.572;23.426;2024-03-17T05:13:49;13.15;;;6.43;;
7473;SDS011;3778;42.572;23.426;2024-03-17T05:16:15;6.57;;;4.47;;
7473;SDS011;3778;42.572;23.426;2024-03-17T05:18:41;12.80;;;6.65;;
7473;SDS011;3778;42.572;23.426;2024-03-17T05:21:07;14.52;;;3.92;;
7473;SDS011;3778;42.572;23.426;2024-03-17T05:23:34;11.73;;;6.03;;
7473;SDS011;3778;42.572;23.426;2024-03-17T05:26:02;13.20;;;7.28;;
7473;SDS011;3778;42.572;23.426;2024-03-17T05:28:31;15.82;;;6.85;;
7473;SDS011;3778;42.572;23.426;2024-03-17T05:30:57;11.80;;;6.45;;
7473;SDS011;3778;42.572;23.426;2024-03-17T05:33:22;17.50;;;8.30;;
7473;SDS011;3778;42.572;23.426;2024-03-17T05:35:52;22.15;;;7.60;;
7473;SDS011;3778;42.572;23.426;2024-03-17T05:38:20;15.27;;;8.73;;
7473;SDS011;3778;42.572;23.426;2024-03-17T05:40:53;14.80;;;7.03;;
7473;SDS011;3778;42.572;23.426;2024-03-17T05:43:19;14.80;;;8.35;;
7473;SDS011;3778;42.572;23.426;2024-03-17T05:45:45;17.05;;;7.85;;
7473;SDS011;3778;42.572;23.426;2024-03-17T05:48:11;12.82;;;6.43;;
7473;SDS011;3778;42.572;23.426;2024-03-17T05:50:36;16.38;;;7.70;;
7473;SDS011;3778;42.572;23.426;2024-03-17T05:53:01;13.00;;;7.00;;
7473;SDS011;3778;42.572;23.426;2024-03-17T05:55:28;14.75;;;7.25;;
7473;SDS011;3778;42.572;23.426;2024-03-17T05:57:53;17.98;;;8.48;;
7473;SDS011;3778;42.572;23.426;2024-03-17T06:00:19;16.90;;;6.68;;
7473;SDS011;3778;42.572;23.426;2024-03-17T06:02:44;12.52;;;7.10;;
7473;SDS011;3778;42.572;23.426;2024-03-17T06:05:11;8.30;;;5.10;;
7473;SDS011;3778;42.572;23.426;2024-03-17T06:07:39;15.75;;;7.43;;
7473;SDS011;3778;42.572;23.426;2024-03-17T06:10:05;17.70;;;8.38;;
7473;SDS011;3778;42.572;23.426;2024-03-17T06:12:31;17.35;;;8.43;;
7473;SDS011;3778;42.572;23.426;2024-03-17T06:14:56;14.80;;;7.10;;
7473;SDS011;3778;42.572;23.426;2024-03-17T06:17:22;15.38;;;7.85;;
7473;SDS011;3778;42.572;23.426;2024-03-17T06:19:47;13.43;;;6.80;;
7473;SDS011;3778;42.572;23.426;2024-03-17T06:22:13;14.98;;;7.97;;
7473;SDS011;3778;42.572;23.426;2024-03-17T06:24:38;17.38;;;7.43;;
7473;SDS011;3778;42.572;23.426;2024-03-17T06:27:04;15.20;;;8.18;;
7473;SDS011;3778;42.572;23.426;2024-03-17T06:29:32;16.52;;;8.00;;
7473;SDS011;3778;42.572;23.426;2024-03-17T06:31:58;12.77;;;7.78;;
7473;SDS011;3778;42.572;23.426;2024-03-17T06:34:23;13.50;;;6.28;;
7473;SDS011;3778;42.572;23.426;2024-03-17T06:36:48;18.00;;;8.45;;
7473;SDS011;3778;42.572;23.426;2024-03-17T06:39:14;14.38;;;6.93;;
7473;SDS011;3778;42.572;23.426;2024-03-17T06:41:41;15.05;;;7.78;;
7473;SDS011;3778;42.572;23.426;2024-03-17T06:44:07;14.82;;;7.35;;
7473;SDS011;3778;42.572;23.426;2024-03-17T06:46:33;13.80;;;7.13;;
7473;SDS011;3778;42.572;23.426;2024-03-17T06:48:58;12.25;;;7.07;;
7473;SDS011;3778;42.572;23.426;2024-03-17T06:51:24;13.15;;;6.35;;
7473;SDS011;3778;42.572;23.426;2024-03-17T06:53:50;13.82;;;7.43;;
7473;SDS011;3778;42.572;23.426;2024-03-17T06:56:15;13.13;;;6.18;;
7473;SDS011;3778;42.572;23.426;2024-03-17T06:58:41;14.77;;;7.88;;
7473;SDS011;3778;42.572;23.426;2024-03-17T07:01:06;15.52;;;6.43;;
7473;SDS011;3778;42.572;23.426;2024-03-17T07:03:33;12.57;;;7.35;;
7473;SDS011;3778;42.572;23.426;2024-03-17T07:05:59;13.63;;;7.40;;
7473;SDS011;3778;42.572;23.426;2024-03-17T07:08:28;11.30;;;6.25;;
7473;SDS011;3778;42.572;23.426;2024-03-17T07:11:01;13.07;;;6.78;;
7473;SDS011;3778;42.572;23.426;2024-03-17T07:13:31;11.68;;;7.57;;
7473;SDS011;3778;42.572;23.426;2024-03-17T07:15:59;14.25;;;7.30;;
7473;SDS011;3778;42.572;23.426;2024-03-17T07:18:25;15.88;;;8.45;;
7473;SDS011;3778;42.572;23.426;2024-03-17T07:20:52;16.95;;;7.43;;
7473;SDS011;3778;42.572;23.426;2024-03-17T07:23:18;14.43;;;7.65;;
7473;SDS011;3778;42.572;23.426;2024-03-17T07:25:51;20.70;;;9.63;;
7473;SDS011;3778;42.572;23.426;2024-03-17T07:28:20;21.33;;;9.35;;
7473;SDS011;3778;42.572;23.426;2024-03-17T07:30:55;17.20;;;8.88;;
7473;SDS011;3778;42.572;23.426;2024-03-17T07:33:22;17.00;;;8.27;;
7473;SDS011;3778;42.572;23.426;2024-03-17T07:35:52;17.05;;;8.65;;
7473;SDS011;3778;42.572;23.426;2024-03-17T07:38:21;18.98;;;8.98;;
7473;SDS011;3778;42.572;23.426;2024-03-17T07:43:27;16.38;;;7.82;;
7473;SDS011;3778;42.572;23.426;2024-03-17T07:48:30;11.65;;;6.53;;
7473;SDS011;3778;42.572;23.426;2024-03-17T07:50:58;15.90;;;7.05;;
7473;SDS011;3778;42.572;23.426;2024-03-17T07:53:26;17.30;;;7.57;;
7473;SDS011;3778;42.572;23.426;2024-03-17T07:55:58;13.55;;;6.97;;
7473;SDS011;3778;42.572;23.426;2024-03-17T07:58:24;16.73;;;7.03;;
7473;SDS011;3778;42.572;23.426;2024-03-17T08:00:56;12.23;;;6.72;;
7473;SDS011;3778;42.572;23.426;2024-03-17T08:03:24;10.05;;;5.75;;
7473;SDS011;3778;42.572;23.426;2024-03-17T08:05:50;14.32;;;7.95;;
7473;SDS011;3778;42.572;23.426;2024-03-17T08:08:17;17.92;;;9.40;;
7473;SDS011;3778;42.572;23.426;2024-03-17T08:10:43;16.02;;;7.30;;
7473;SDS011;3778;42.572;23.426;2024-03-17T08:13:08;17.67;;;9.05;;
7473;SDS011;3778;42.572;23.426;2024-03-17T08:15:34;27.38;;;12.40;;
7473;SDS011;3778;42.572;23.426;2024-03-17T08:18:00;17.25;;;9.95;;
7473;SDS011;3778;42.572;23.426;2024-03-17T08:20:26;24.38;;;10.55;;
7473;SDS011;3778;42.572;23.426;2024-03-17T08:23:01;21.63;;;11.60;;
7473;SDS011;3778;42.572;23.426;2024-03-17T08:25:26;20.33;;;10.55;;
7473;SDS011;3778;42.572;23.426;2024-03-17T08:27:52;21.90;;;11.02;;
7473;SDS011;3778;42.572;23.426;2024-03-17T08:30:17;22.27;;;11.75;;
7473;SDS011;3778;42.572;23.426;2024-03-17T08:32:43;19.88;;;11.30;;
7473;SDS011;3778;42.572;23.426;2024-03-17T08:35:10;21.75;;;10.98;;
7473;SDS011;3778;42.572;23.426;2024-03-17T08:37:38;28.52;;;12.40;;
7473;SDS011;3778;42.572;23.426;2024-03-17T08:40:04;23.35;;;12.68;;
7473;SDS011;3778;42.572;23.426;2024-03-17T08:42:31;25.90;;;13.50;;
7473;SDS011;3778;42.572;23.426;2024-03-17T08:44:57;25.50;;;12.35;;
7473;SDS011;3778;42.572;23.426;2024-03-17T08:47:23;23.05;;;11.98;;
7473;SDS011;3778;42.572;23.426;2024-03-17T08:49:50;24.75;;;12.70;;
7473;SDS011;3778;42.572;23.426;2024-03-17T08:52:16;25.92;;;13.35;;
7473;SDS011;3778;42.572;23.426;2024-03-17T08:54:45;23.48;;;13.55;;
7473;SDS011;3778;42.572;23.426;2024-03-17T08:57:11;25.35;;;12.48;;
7473;SDS011;3778;42.572;23.426;2024-03-17T08:59:37;23.63;;;12.82;;
7473;SDS011;3778;42.572;23.426;2024-03-17T09:02:02;26.88;;;13.02;;
7473;SDS011;3778;42.572;23.426;2024-03-17T09:04:28;27.58;;;15.27;;
7473;SDS011;3778;42.572;23.426;2024-03-17T09:06:54;23.60;;;13.38;;
7473;SDS011;3778;42.572;23.426;2024-03-17T09:09:21;27.88;;;12.15;;
7473;SDS011;3778;42.572;23.426;2024-03-17T09:11:47;26.85;;;13.05;;
7473;SDS011;3778;42.572;23.426;2024-03-17T09:14:12;25.05;;;12.68;;
7473;SDS011;3778;42.572;23.426;2024-03-17T09:16:38;25.05;;;12.98;;
7473;SDS011;3778;42.572;23.426;2024-03-17T09:19:03;25.20;;;13.23;;
7473;SDS011;3778;42.572;23.426;2024-03-17T09:21:29;24.05;;;12.10;;
7473;SDS011;3778;42.572;23.426;2024-03-17T09:23:54;23.95;;;11.57;;
7473;SDS011;3778;42.572;23.426;2024-03-17T09:26:20;22.10;;;12.25;;
7473;SDS011;3778;42.572;23.426;2024-03-17T09:28:45;22.95;;;10.50;;
7473;SDS011;3778;42.572;23.426;2024-03-17T09:31:11;21.75;;;12.23;;
7473;SDS011;3778;42.572;23.426;2024-03-17T09:33:37;22.40;;;10.95;;
7473;SDS011;3778;42.572;23.426;2024-03-17T09:36:04;19.38;;;10.32;;
7473;SDS011;3778;42.572;23.426;2024-03-17T09:38:34;18.58;;;9.65;;
7473;SDS011;3778;42.572;23.426;2024-03-17T09:41:00;19.75;;;9.52;;
7473;SDS011;3778;42.572;23.426;2024-03-17T09:43:27;16.77;;;9.23;;
7473;SDS011;3778;42.572;23.426;2024-03-17T09:45:53;17.40;;;10.02;;
7473;SDS011;3778;42.572;23.426;2024-03-17T09:48:23;16.02;;;9.63;;
7473;SDS011;3778;42.572;23.426;2024-03-17T09:50:54;15.55;;;8.93;;
7473;SDS011;3778;42.572;23.426;2024-03-17T09:53:26;14.18;;;8.55;;
7473;SDS011;3778;42.572;23.426;2024-03-17T09:55:59;10.73;;;6.05;;
7473;SDS011;3778;42.572;23.426;2024-03-17T09:58:37;8.18;;;5.07;;
7473;SDS011;3778;42.572;23.426;2024-03-17T10:01:03;14.98;;;6.95;;
7473;SDS011;3778;42.572;23.426;2024-03-17T10:03:45;10.90;;;6.03;;
7473;SDS011;3778;42.572;23.426;2024-03-17T10:06:14;9.90;;;6.07;;
7473;SDS011;3778;42.572;23.426;2024-03-17T10:11:17;6.85;;;4.00;;
7473;SDS011;3778;42.572;23.426;2024-03-17T10:13:44;10.73;;;5.55;;
7473;SDS011;3778;42.572;23.426;2024-03-17T10:16:23;13.32;;;5.55;;
7473;SDS011;3778;42.572;23.426;2024-03-17T10:18:51;12.43;;;6.25;;
7473;SDS011;3778;42.572;23.426;2024-03-17T10:21:31;13.15;;;6.20;;
7473;SDS011;3778;42.572;23.426;2024-03-17T10:24:06;8.63;;;4.15;;
7473;SDS011;3778;42.572;23.426;2024-03-17T10:26:51;9.40;;;5.70;;
7473;SDS011;3778;42.572;23.426;2024-03-17T10:31:53;7.22;;;4.68;;
7473;SDS011;3778;42.572;23.426;2024-03-17T10:34:20;5.05;;;3.63;;
7473;SDS011;3778;42.572;23.426;2024-03-17T10:36:49;3.67;;;2.17;;
7473;SDS011;3778;42.572;23.426;2024-03-17T10:39:31;6.90;;;4.13;;
7473;SDS011;3778;42.572;23.426;2024-03-17T10:41:58;5.53;;;3.92;;
7473;SDS011;3778;42.572;23.426;2024-03-17T10:44:26;7.28;;;4.63;;
7473;SDS011;3778;42.572;23.426;2024-03-17T10:46:55;7.50;;;4.43;;
7473;SDS011;3778;42.572;23.426;2024-03-17T10:49:29;5.10;;;3.28;;
7473;SDS011;3778;42.572;23.426;2024-03-17T10:54:25;7.68;;;3.60;;
7473;SDS011;3778;42.572;23.426;2024-03-17T10:56:54;4.65;;;3.85;;
7473;SDS011;3778;42.572;23.426;2024-03-17T10:59:23;5.53;;;4.07;;
7473;SDS011;3778;42.572;23.426;2024-03-17T11:04:41;6.82;;;3.17;;
7473;SDS011;3778;42.572;23.426;2024-03-17T11:07:07;5.45;;;3.38;;
7473;SDS011;3778;42.572;23.426;2024-03-17T11:09:43;4.78;;;3.28;;
7473;SDS011;3778;42.572;23.426;2024-03-17T11:17:51;6.15;;;3.30;;
7473;SDS011;3778;42.572;23.426;2024-03-17T11:20:23;4.88;;;3.30;;
7473;SDS011;3778;42.572;23.426;2024-03-17T11:22:50;4.38;;;3.03;;
7473;SDS011;3778;42.572;23.426;2024-03-17T11:27:53;4.13;;;3.22;;
7473;SDS011;3778;42.572;23.426;2024-03-17T11:44:13;6.00;;;3.72;;
7473;SDS011;3778;42.572;23.426;2024-03-17T11:54:33;10.88;;;4.80;;
7473;SDS011;3778;42.572;23.426;2024-03-17T11:57:03;7.00;;;3.47;;
7473;SDS011;3778;42.572;23.426;2024-03-17T11:59:36;7.55;;;4.45;;
7473;SDS011;3778;42.572;23.426;2024-03-17T12:02:09;6.45;;;4.20;;
7473;SDS011;3778;42.572;23.426;2024-03-17T12:04:39;5.75;;;3.30;;
7473;SDS011;3778;42.572;23.426;2024-03-17T12:07:07;6.47;;;4.38;;
7473;SDS011;3778;42.572;23.426;2024-03-17T12:09:38;5.93;;;4.13;;
7473;SDS011;3778;42.572;23.426;2024-03-17T12:12:06;8.15;;;4.40;;
7473;SDS011;3778;42.572;23.426;2024-03-17T12:15:00;8.65;;;3.90;;
7473;SDS011;3778;42.572;23.426;2024-03-17T12:17:27;7.22;;;4.30;;
7473;SDS011;3778;42.572;23.426;2024-03-17T12:19:53;6.38;;;3.90;;
7473;SDS011;3778;42.572;23.426;2024-03-17T12:22:22;6.50;;;4.45;;
7473;SDS011;3778;42.572;23.426;2024-03-17T12:24:50;6.72;;;4.03;;
7473;SDS011;3778;42.572;23.426;2024-03-17T12:27:17;5.70;;;4.07;;
7473;SDS011;3778;42.572;23.426;2024-03-17T12:29:44;6.20;;;4.00;;
7473;SDS011;3778;42.572;23.426;2024-03-17T12:32:13;7.85;;;3.72;;
7473;SDS011;3778;42.572;23.426;2024-03-17T12:34:45;5.50;;;3.58;;
7473;SDS011;3778;42.572;23.426;2024-03-17T12:37:18;6.05;;;3.55;;
7473;SDS011;3778;42.572;23.426;2024-03-17T12:39:43;4.43;;;2.90;;
7473;SDS011;3778;42.572;23.426;2024-03-17T12:42:10;5.82;;;3.60;;
7473;SDS011;3778;42.572;23.426;2024-03-17T12:47:15;6.85;;;3.70;;
7473;SDS011;3778;42.572;23.426;2024-03-17T12:49:45;6.18;;;3.22;;
7473;SDS011;3778;42.572;23.426;2024-03-17T12:54:44;6.00;;;3.15;;
7473;SDS011;3778;42.572;23.426;2024-03-17T12:57:19;6.63;;;3.28;;
7473;SDS011;3778;42.572;23.426;2024-03-17T13:00:16;7.30;;;4.47;;
7473;SDS011;3778;42.572;23.426;2024-03-17T13:03:01;6.20;;;3.35;;
7473;SDS011;3778;42.572;23.426;2024-03-17T13:05:27;5.75;;;2.95;;
7473;SDS011;3778;42.572;23.426;2024-03-17T13:07:53;5.32;;;3.70;;
7473;SDS011;3778;42.572;23.426;2024-03-17T13:10:23;4.25;;;3.05;;
7473;SDS011;3778;42.572;23.426;2024-03-17T13:12:58;5.65;;;3.47;;
7473;SDS011;3778;42.572;23.426;2024-03-17T13:15:28;7.40;;;4.13;;
7473;SDS011;3778;42.572;23.426;2024-03-17T13:17:56;10.20;;;4.38;;
7473;SDS011;3778;42.572;23.426;2024-03-17T13:20:22;5.88;;;4.32;;
7473;SDS011;3778;42.572;23.426;2024-03-17T13:22:47;5.43;;;4.07;;
7473;SDS011;3778;42.572;23.426;2024-03-17T13:25:14;5.35;;;4.20;;
7473;SDS011;3778;42.572;23.426;2024-03-17T13:27:42;6.80;;;4.50;;
7473;SDS011;3778;42.572;23.426;2024-03-17T13:30:08;4.85;;;3.38;;
7473;SDS011;3778;42.572;23.426;2024-03-17T13:32:34;6.47;;;4.35;;
7473;SDS011;3778;42.572;23.426;2024-03-17T13:35:00;6.93;;;3.90;;
7473;SDS011;3778;42.572;23.426;2024-03-17T13:37:26;6.20;;;4.05;;
7473;SDS011;3778;42.572;23.426;2024-03-17T13:39:52;7.30;;;3.83;;
7473;SDS011;3778;42.572;23.426;2024-03-17T13:42:17;7.07;;;4.15;;
7473;SDS011;3778;42.572;23.426;2024-03-17T13:44:43;6.45;;;3.95;;
7473;SDS011;3778;42.572;23.426;2024-03-17T13:47:08;6.60;;;4.15;;
7473;SDS011;3778;42.572;23.426;2024-03-17T13:49:34;6.55;;;4.50;;
7473;SDS011;3778;42.572;23.426;2024-03-17T13:51:59;10.77;;;4.40;;
7473;SDS011;3778;42.572;23.426;2024-03-17T13:54:25;6.72;;;4.55;;
7473;SDS011;3778;42.572;23.426;2024-03-17T13:56:50;9.05;;;4.53;;
7473;SDS011;3778;42.572;23.426;2024-03-17T13:59:16;7.72;;;4.93;;
7473;SDS011;3778;42.572;23.426;2024-03-17T14:01:45;8.60;;;5.07;;
7473;SDS011;3778;42.572;23.426;2024-03-17T14:04:14;6.53;;;4.13;;
7473;SDS011;3778;42.572;23.426;2024-03-17T14:06:40;7.57;;;4.63;;
7473;SDS011;3778;42.572;23.426;2024-03-17T14:09:06;8.65;;;4.72;;
7473;SDS011;3778;42.572;23.426;2024-03-17T14:11:34;7.25;;;4.88;;
7473;SDS011;3778;42.572;23.426;2024-03-17T14:14:00;9.88;;;5.38;;
7473;SDS011;3778;42.572;23.426;2024-03-17T14:16:25;9.57;;;4.82;;
7473;SDS011;3778;42.572;23.426;2024-03-17T14:18:51;7.25;;;4.43;;
7473;SDS011;3778;42.572;23.426;2024-03-17T14:21:16;8.63;;;5.35;;
7473;SDS011;3778;42.572;23.426;2024-03-17T14:23:41;9.55;;;5.13;;
7473;SDS011;3778;42.572;23.426;2024-03-17T14:26:10;8.38;;;4.82;;
7473;SDS011;3778;42.572;23.426;2024-03-17T14:28:36;8.63;;;5.70;;
7473;SDS011;3778;42.572;23.426;2024-03-17T14:31:01;8.13;;;5.40;;
7473;SDS011;3778;42.572;23.426;2024-03-17T14:33:27;8.95;;;5.68;;
7473;SDS011;3778;42.572;23.426;2024-03-17T14:35:59;9.70;;;5.40;;
7473;SDS011;3778;42.572;23.426;2024-03-17T14:38:25;8.45;;;4.40;;
7473;SDS011;3778;42.572;23.426;2024-03-17T14:40:55;8.23;;;5.63;;
7473;SDS011;3778;42.572;23.426;2024-03-17T14:43:20;9.27;;;5.28;;
7473;SDS011;3778;42.572;23.426;2024-03-17T14:45:46;9.60;;;5.45;;
7473;SDS011;3778;42.572;23.426;2024-03-17T14:48:12;9.77;;;5.20;;
7473;SDS011;3778;42.572;23.426;2024-03-17T14:50:38;8.80;;;5.55;;
7473;SDS011;3778;42.572;23.426;2024-03-17T14:53:04;9.55;;;6.07;;
7473;SDS011;3778;42.572;23.426;2024-03-17T14:55:30;14.40;;;6.20;;
7473;SDS011;3778;42.572;23.426;2024-03-17T14:57:56;9.23;;;5.53;;
7473;SDS011;3778;42.572;23.426;2024-03-17T15:00:21;9.18;;;6.30;;
7473;SDS011;3778;42.572;23.426;2024-03-17T15:02:49;13.73;;;7.18;;
7473;SDS011;3778;42.572;23.426;2024-03-17T15:05:16;11.18;;;6.25;;
7473;SDS011;3778;42.572;23.426;2024-03-17T15:07:46;10.70;;;6.25;;
7473;SDS011;3778;42.572;23.426;2024-03-17T15:10:13;10.30;;;6.05;;
7473;SDS011;3778;42.572;23.426;2024-03-17T15:12:39;11.30;;;5.53;;
7473;SDS011;3778;42.572;23.426;2024-03-17T15:15:05;11.60;;;6.20;;
7473;SDS011;3778;42.572;23.426;2024-03-17T15:17:35;10.07;;;5.93;;
7473;SDS011;3778;42.572;23.426;2024-03-17T15:20:01;8.75;;;4.80;;
7473;SDS011;3778;42.572;23.426;2024-03-17T15:22:26;10.10;;;5.50;;
7473;SDS011;3778;42.572;23.426;2024-03-17T15:24:52;11.23;;;6.30;;
7473;SDS011;3778;42.572;23.426;2024-03-17T15:27:18;11.10;;;5.85;;
7473;SDS011;3778;42.572;23.426;2024-03-17T15:29:43;8.05;;;5.15;;
7473;SDS011;3778;42.572;23.426;2024-03-17T15:32:09;14.00;;;7.05;;
7473;SDS011;3778;42.572;23.426;2024-03-17T15:34:36;9.48;;;5.32;;
7473;SDS011;3778;42.572;23.426;2024-03-17T15:37:02;12.32;;;6.95;;
7473;SDS011;3778;42.572;23.426;2024-03-17T15:39:29;10.02;;;6.65;;
7473;SDS011;3778;42.572;23.426;2024-03-17T15:41:54;13.60;;;5.60;;
7473;SDS011;3778;42.572;23.426;2024-03-17T15:44:20;9.68;;;5.95;;